Time;durP1;ratioP1;P1;durP2;ratioP2;P2;SDS_P1;SDS_P2;PMS_P1;PMS_P2;Temp;Humidity;BMP_temperature;BMP_pressure;BME280_temperature;BME280_humidity;BME280_pressure;Samples;Min_cycle;Max_cycle;Signal;HPM_P1;HPM_P2
2023/02/06 00:00:22;;;;;;;8.70;4.43;;;;;;;-0.69;62.50;100777.75;5088365;28;20044;-56
2023/02/06 00:02:48;;;;;;;8.77;4.18;;;;;;;-0.87;62.67;100749.13;5088645;28;20139;-52
2023/02/06 00:05:15;;;;;;;9.63;4.22;;;;;;;-0.73;62.74;100775.91;5080682;28;20039;-52
2023/02/06 00:07:41;;;;;;;9.23;4.38;;;;;;;-0.73;62.45;100775.91;5066834;28;20052;-56
2023/02/06 00:10:07;;;;;;;9.05;4.70;;;;;;;-0.74;62.78;100764.00;5066803;28;20061;-55
2023/02/06 00:12:34;;;;;;;8.63;4.30;;;;;;;-1.04;62.30;100718.03;5066802;28;20044;-55
2023/02/06 00:15:00;;;;;;;7.40;4.22;;;;;;;-0.77;62.81;100780.88;5066301;28;20059;-54
2023/02/06 00:17:26;;;;;;;6.57;3.75;;;;;;;-0.96;62.37;100741.22;5068228;28;20485;-54
2023/02/06 00:19:52;;;;;;;9.40;4.15;;;;;;;-0.80;62.75;100768.91;5070017;28;20052;-54
2023/02/06 00:22:18;;;;;;;8.88;3.95;;;;;;;-0.81;62.61;100768.88;5086774;28;20071;-51
2023/02/06 00:24:44;;;;;;;8.88;4.50;;;;;;;-0.82;62.69;100775.66;5088319;28;20119;-52
2023/02/06 00:27:09;;;;;;;10.80;4.35;;;;;;;-0.84;62.75;100776.44;5068135;28;20048;-56
2023/02/06 00:29:35;;;;;;;9.05;4.22;;;;;;;-0.84;62.53;100776.44;5081387;28;20433;-54
2023/02/06 00:32:01;;;;;;;7.82;3.90;;;;;;;-0.81;62.83;100782.50;5086722;28;20043;-54
2023/02/06 00:34:27;;;;;;;8.57;4.05;;;;;;;-0.82;62.75;100785.88;5069936;28;20032;-53
2023/02/06 00:36:53;;;;;;;9.77;4.55;;;;;;;-0.80;62.63;100781.69;5069276;28;20067;-56
2023/02/06 00:39:19;;;;;;;7.88;3.97;;;;;;;-0.81;62.75;100784.19;5069225;28;22108;-56
2023/02/06 00:41:44;;;;;;;9.65;4.45;;;;;;;-0.84;62.75;100782.44;5058934;28;20139;-54
2023/02/06 00:44:11;;;;;;;11.45;4.18;;;;;;;-0.85;62.72;100788.34;5067683;28;20048;-50
2023/02/06 00:46:36;;;;;;;9.88;4.25;;;;;;;-0.88;62.64;100784.00;5082140;28;20507;-53
2023/02/06 00:49:02;;;;;;;9.50;4.68;;;;;;;-0.86;62.61;100791.72;5086769;28;20047;-53
2023/02/06 00:51:28;;;;;;;8.65;4.13;;;;;;;-0.87;62.67;100795.09;5058087;28;20037;-56
2023/02/06 00:53:54;;;;;;;7.72;4.10;;;;;;;-0.88;62.51;100791.66;5083005;28;20036;-53
2023/02/06 00:56:20;;;;;;;7.47;3.90;;;;;;;-0.93;62.49;100785.56;5079874;28;20039;-57
2023/02/06 00:58:46;;;;;;;8.82;4.25;;;;;;;-0.95;62.60;100791.44;5090484;28;20085;-55
2023/02/06 01:01:13;;;;;;;8.98;3.97;;;;;;;-0.98;62.73;100787.13;5073656;28;20039;-56
2023/02/06 01:03:39;;;;;;;8.80;4.28;;;;;;;-0.97;62.84;100791.41;5073323;28;20049;-53
2023/02/06 01:06:05;;;;;;;10.82;4.70;;;;;;;-0.92;62.75;100783.88;5085030;28;20067;-51
2023/02/06 01:08:30;;;;;;;7.30;3.65;;;;;;;-0.92;62.53;100786.44;5069959;28;20080;-52
2023/02/06 01:10:58;;;;;;;8.05;3.83;;;;;;;-0.98;62.43;100788.78;5052912;28;20059;-53
2023/02/06 01:13:25;;;;;;;7.97;3.95;;;;;;;-1.05;62.50;100781.78;5069772;28;20120;-54
2023/02/06 01:15:51;;;;;;;9.57;4.57;;;;;;;-1.02;62.72;100781.88;5069449;28;20423;-53
2023/02/06 01:18:17;;;;;;;10.48;4.15;;;;;;;-1.02;62.57;100784.44;5086876;28;20128;-55
2023/02/06 01:20:43;;;;;;;7.05;3.78;;;;;;;-1.07;62.62;100786.84;5087303;28;20048;-53
2023/02/06 01:23:09;;;;;;;8.07;3.67;;;;;;;-1.23;62.58;100761.69;5091082;28;20036;-55
2023/02/06 01:25:36;;;;;;;7.95;3.75;;;;;;;-1.09;62.70;100782.50;5087752;28;20101;-57
2023/02/06 01:28:02;;;;;;;7.75;4.03;;;;;;;-1.08;62.62;100791.91;5053026;28;20044;-54
2023/02/06 01:30:29;;;;;;;6.70;3.65;;;;;;;-1.11;62.51;100790.13;5069637;28;20124;-53
2023/02/06 01:32:55;;;;;;;6.53;3.60;;;;;;;-1.14;62.57;100795.13;5069471;28;20037;-55
2023/02/06 01:35:21;;;;;;;7.43;3.25;;;;;;;-1.16;62.34;100788.25;5069388;28;20046;-51
2023/02/06 01:37:47;;;;;;;5.78;3.05;;;;;;;-1.24;62.63;100789.69;5070484;28;20040;-54
2023/02/06 01:40:15;;;;;;;6.57;3.13;;;;;;;-1.26;62.36;100789.66;5077672;28;20051;-54
2023/02/06 01:42:41;;;;;;;6.53;3.03;;;;;;;-1.53;62.72;100755.66;5089600;28;20046;-54
2023/02/06 01:45:25;;;;;;;5.45;3.10;;;;;;;-1.33;62.68;100796.25;5072506;28;20047;-54
2023/02/06 01:47:59;;;;;;;4.68;2.90;;;;;;;-1.41;62.45;100786.63;5073110;28;20423;-54
2023/02/06 01:50:25;;;;;;;7.10;3.45;;;;;;;-1.55;62.81;100764.94;5068117;28;20044;-50
2023/02/06 01:52:51;;;;;;;7.82;3.38;;;;;;;-1.56;62.57;100758.97;5035544;28;20056;-54
2023/02/06 01:55:17;;;;;;;6.95;3.65;;;;;;;-1.40;62.58;100776.47;5069018;28;20044;-56
2023/02/06 01:57:43;;;;;;;7.60;3.55;;;;;;;-1.39;62.60;100790.09;5084531;28;20040;-52
2023/02/06 02:00:10;;;;;;;8.30;3.97;;;;;;;-1.40;62.57;100799.44;5072572;28;20052;-53
2023/02/06 02:02:42;;;;;;;5.47;3.15;;;;;;;-1.40;62.67;100793.47;5090489;28;20036;-52
2023/02/06 02:05:08;;;;;;;6.70;3.42;;;;;;;-1.40;62.83;100796.88;5090431;28;20048;-53
2023/02/06 02:07:37;;;;;;;6.22;2.80;;;;;;;-1.43;62.77;100796.78;5057815;28;20044;-54
2023/02/06 02:10:04;;;;;;;5.50;2.53;;;;;;;-1.51;62.72;100800.75;5035073;28;20478;-54
2023/02/06 02:12:30;;;;;;;3.78;2.38;;;;;;;-1.52;62.64;100804.16;5085596;28;20110;-50
2023/02/06 02:14:56;;;;;;;4.95;2.63;;;;;;;-1.59;62.83;100794.56;5068707;28;20040;-53
2023/02/06 02:17:41;;;;;;;5.78;2.78;;;;;;;-1.58;62.90;100809.06;5076862;28;20054;-52
2023/02/06 02:20:33;;;;;;;4.47;2.67;;;;;;;-1.61;62.90;100808.94;5088893;28;20054;-53
2023/02/06 02:23:36;;;;;;;5.20;2.70;;;;;;;-1.64;63.08;100806.31;5057341;28;20090;-55
2023/02/06 02:26:27;;;;;;;6.18;2.97;;;;;;;-1.64;63.11;100821.59;5068529;28;20131;-52
2023/02/06 02:29:04;;;;;;;6.22;3.00;;;;;;;-1.61;63.49;100815.72;5088968;28;20068;-52
2023/02/06 02:31:31;;;;;;;7.77;3.63;;;;;;;-1.61;63.37;100833.56;5088552;28;20115;-52
2023/02/06 02:34:30;;;;;;;8.05;3.28;;;;;;;-1.62;63.44;100819.94;5088479;28;20855;-51
2023/02/06 02:37:15;;;;;;;5.40;2.80;;;;;;;-1.66;63.73;100825.78;5080012;28;20079;-54
2023/02/06 02:40:26;;;;;;;7.65;3.20;;;;;;;-1.65;63.79;100826.63;5053546;28;20086;-55
2023/02/06 02:43:11;;;;;;;5.53;2.83;;;;;;;-1.73;63.83;100828.97;5052780;28;20098;-55
2023/02/06 02:46:06;;;;;;;6.22;3.28;;;;;;;-1.78;63.94;100831.31;5068105;28;20523;-56
2023/02/06 02:48:39;;;;;;;5.00;2.97;;;;;;;-1.78;64.21;100835.59;5047776;28;20483;-52
2023/02/06 02:51:05;;;;;;;6.38;3.28;;;;;;;-1.78;64.28;100827.94;5051326;28;20036;-55
2023/02/06 02:53:31;;;;;;;7.15;3.35;;;;;;;-1.78;64.53;100835.59;5067947;28;20036;-54
2023/02/06 02:55:58;;;;;;;7.43;3.42;;;;;;;-1.79;64.25;100834.72;5067919;28;20071;-52
2023/02/06 02:58:28;;;;;;;7.53;3.23;;;;;;;-1.76;64.38;100823.75;5085499;28;20040;-48
2023/02/06 03:01:08;;;;;;;6.18;3.10;;;;;;;-1.75;64.68;100833.13;5067492;28;20044;-52
2023/02/06 03:03:37;;;;;;;7.85;3.63;;;;;;;-1.72;64.83;100834.09;5051253;28;20028;-54
2023/02/06 03:06:26;;;;;;;7.82;3.45;;;;;;;-1.73;64.83;100832.34;5051059;28;20061;-55
2023/02/06 03:09:09;;;;;;;6.70;3.40;;;;;;;-1.77;64.78;100833.06;5066674;28;20104;-54
2023/02/06 03:11:38;;;;;;;7.00;3.30;;;;;;;-1.73;64.80;100844.25;5087490;28;20066;-54
2023/02/06 03:14:14;;;;;;;6.28;3.63;;;;;;;-1.75;65.14;100839.09;5070714;28;20044;-51
2023/02/06 03:16:47;;;;;;;5.45;2.80;;;;;;;-1.74;65.02;100843.38;5087551;28;20114;-55
2023/02/06 03:19:23;;;;;;;6.78;3.13;;;;;;;-2.14;65.06;100776.56;5067036;28;20096;-53
2023/02/06 03:21:49;;;;;;;4.68;2.60;;;;;;;-1.79;64.99;100837.25;5067564;28;20535;-54
2023/02/06 03:24:21;;;;;;;4.47;2.72;;;;;;;-1.79;65.00;100841.50;5067638;28;20131;-52
2023/02/06 03:26:51;;;;;;;6.85;3.00;;;;;;;-1.84;65.27;100843.03;5067384;28;20041;-51
2023/02/06 03:29:17;;;;;;;5.60;2.92;;;;;;;-1.86;65.23;100847.19;5086857;28;20144;-52
2023/02/06 03:31:54;;;;;;;5.55;3.17;;;;;;;-1.90;65.38;100848.78;5070590;28;20047;-51
2023/02/06 03:34:43;;;;;;;7.00;3.15;;;;;;;-1.87;65.59;100845.44;5087351;28;20052;-54
2023/02/06 03:37:09;;;;;;;4.80;2.30;;;;;;;-1.90;65.51;100838.59;5087337;28;20055;-56
2023/02/06 03:39:35;;;;;;;4.82;2.50;;;;;;;-1.96;65.45;100835.81;5068727;28;20055;-54
2023/02/06 03:42:02;;;;;;;5.80;2.78;;;;;;;-1.96;65.66;100835.81;5067097;28;20131;-53
2023/02/06 03:44:35;;;;;;;6.97;3.17;;;;;;;-1.93;65.69;100832.50;5050447;28;20525;-55
2023/02/06 03:47:02;;;;;;;5.22;2.67;;;;;;;-1.91;65.83;100829.19;5050457;28;20102;-53
2023/02/06 03:49:29;;;;;;;5.38;2.55;;;;;;;-1.94;65.68;100824.00;5083943;28;20522;-52
2023/02/06 03:52:05;;;;;;;4.22;2.40;;;;;;;-1.94;65.91;100816.38;5087464;28;20043;-54
2023/02/06 03:54:33;;;;;;;7.18;3.00;;;;;;;-1.95;65.96;100816.31;5071603;28;20044;-57
2023/02/06 03:57:02;;;;;;;4.75;2.58;;;;;;;-1.96;65.90;100820.53;5050518;28;20519;-52
2023/02/06 03:59:29;;;;;;;5.27;2.77;;;;;;;-1.97;66.27;100821.34;5049877;28;20483;-53
2023/02/06 04:01:57;;;;;;;5.68;2.80;;;;;;;-1.96;65.90;100820.53;5050395;28;20036;-55
2023/02/06 04:04:35;;;;;;;6.53;2.60;;;;;;;-1.93;66.02;100819.75;5067113;28;20040;-53
2023/02/06 04:07:07;;;;;;;5.65;2.85;;;;;;;-2.17;65.88;100774.81;5076763;28;20039;-53
2023/02/06 04:09:33;;;;;;;5.03;2.53;;;;;;;-1.95;65.96;100822.28;5073188;28;20036;-52
2023/02/06 04:11:59;;;;;;;4.78;2.45;;;;;;;-1.92;65.95;100821.50;5066918;28;20496;-54
2023/02/06 04:14:25;;;;;;;5.18;2.60;;;;;;;-2.10;66.03;100788.63;5056613;28;20039;-52
2023/02/06 04:16:51;;;;;;;5.22;2.40;;;;;;;-1.86;65.62;100824.25;5077549;28;20460;-56
2023/02/06 04:19:17;;;;;;;4.95;2.50;;;;;;;-1.87;65.46;100823.38;5087976;28;20035;-56
2023/02/06 04:21:43;;;;;;;4.53;2.33;;;;;;;-1.88;65.23;100826.75;5088317;28;20046;-52
2023/02/06 04:24:08;;;;;;;5.70;2.65;;;;;;;-2.06;64.90;100808.28;5079975;28;20036;-51
2023/02/06 04:26:34;;;;;;;4.97;2.60;;;;;;;-1.89;64.81;100831.81;5067162;28;20048;-57
2023/02/06 04:29:00;;;;;;;4.82;2.20;;;;;;;-1.95;64.59;100832.47;5087569;28;20036;-55
2023/02/06 04:31:26;;;;;;;5.75;2.28;;;;;;;-2.11;64.28;100811.50;5090403;28;20054;-53
2023/02/06 04:33:52;;;;;;;3.88;2.45;;;;;;;-1.98;64.13;100834.88;5070248;28;20475;-53
2023/02/06 04:36:18;;;;;;;3.90;2.25;;;;;;;-2.00;63.75;100822.91;5090308;28;20035;-55
2023/02/06 04:38:44;;;;;;;4.03;2.25;;;;;;;-2.14;63.64;100807.16;5088395;28;20488;-52
2023/02/06 04:41:10;;;;;;;7.00;3.00;;;;;;;-2.20;63.11;100797.59;5087682;28;20130;-53
2023/02/06 04:43:36;;;;;;;4.38;2.05;;;;;;;-1.94;62.88;100831.66;5090614;28;20658;-54
2023/02/06 04:46:02;;;;;;;5.00;2.75;;;;;;;-1.95;62.76;100840.09;5091315;28;20602;-52
2023/02/06 04:48:27;;;;;;;3.83;1.90;;;;;;;-1.97;62.23;100841.72;5090172;28;20056;-52
2023/02/06 04:50:53;;;;;;;4.55;2.28;;;;;;;-1.98;62.17;100832.34;5091133;28;20052;-55
2023/02/06 04:53:19;;;;;;;4.95;2.53;;;;;;;-1.98;62.12;100837.44;5088967;28;20480;-54
2023/02/06 04:55:45;;;;;;;4.10;2.00;;;;;;;-1.99;62.04;100833.16;5091816;28;20055;-53
2023/02/06 04:58:11;;;;;;;3.95;2.45;;;;;;;-2.17;61.87;100810.47;5073223;28;20040;-54
2023/02/06 05:00:37;;;;;;;3.67;2.00;;;;;;;-2.27;61.59;100799.91;5091296;28;20043;-54
2023/02/06 05:03:03;;;;;;;5.30;2.47;;;;;;;-2.02;61.54;100840.69;5090427;28;20044;-52
2023/02/06 05:05:29;;;;;;;5.03;2.03;;;;;;;-2.18;61.47;100815.50;5091579;28;20127;-51
2023/02/06 05:07:55;;;;;;;5.20;2.40;;;;;;;-2.18;61.14;100802.75;5087964;28;20500;-52
2023/02/06 05:10:20;;;;;;;5.63;2.50;;;;;;;-1.96;61.27;100843.47;5070750;28;20470;-55
2023/02/06 05:12:49;;;;;;;4.07;2.10;;;;;;;-1.96;61.12;100840.91;5070518;28;20044;-51
2023/02/06 05:15:16;;;;;;;4.30;2.37;;;;;;;-1.95;61.06;100834.13;5080187;28;20035;-59
2023/02/06 05:17:42;;;;;;;5.50;1.98;;;;;;;-1.98;61.11;100834.88;5072774;28;20138;-51
2023/02/06 05:20:08;;;;;;;6.63;2.28;;;;;;;-1.95;61.03;100840.09;5090953;28;20076;-57
2023/02/06 05:22:34;;;;;;;3.05;1.90;;;;;;;-2.09;60.92;100813.25;5088570;28;20048;-55
2023/02/06 05:25:00;;;;;;;3.83;2.03;;;;;;;-1.93;60.94;100832.50;5068413;28;20040;-56
2023/02/06 05:27:26;;;;;;;6.25;2.25;;;;;;;-2.11;60.72;100804.72;5068815;28;20531;-52
2023/02/06 05:29:52;;;;;;;4.40;2.22;;;;;;;-1.92;60.79;100832.56;5075149;28;20373;-54
2023/02/06 05:32:18;;;;;;;3.95;2.08;;;;;;;-2.06;60.71;100807.41;5082610;28;20503;-55
2023/02/06 05:34:44;;;;;;;4.35;2.38;;;;;;;-1.91;60.68;100830.88;5072583;28;20040;-51
2023/02/06 05:37:11;;;;;;;3.95;2.15;;;;;;;-1.90;60.54;100837.72;5078526;28;20063;-54
2023/02/06 05:39:37;;;;;;;5.47;2.42;;;;;;;-1.92;60.66;100836.78;5088940;28;20044;-53
2023/02/06 05:42:03;;;;;;;6.38;2.63;;;;;;;-1.91;60.85;100836.84;5090765;28;20047;-53
2023/02/06 05:44:29;;;;;;;3.58;2.10;;;;;;;-2.24;60.82;100769.44;5098196;28;20503;-50
2023/02/06 05:46:55;;;;;;;4.25;2.50;;;;;;;-1.91;60.71;100830.88;5098137;28;20048;-52
2023/02/06 05:49:21;;;;;;;5.13;2.50;;;;;;;-1.87;60.61;100845.44;5085257;28;20132;-53
2023/02/06 05:51:47;;;;;;;4.68;2.53;;;;;;;-1.87;60.85;100841.22;5072328;28;20051;-56
2023/02/06 05:54:15;;;;;;;4.95;2.70;;;;;;;-1.87;60.90;100851.41;5079194;28;20033;-53
2023/02/06 05:56:41;;;;;;;4.63;2.30;;;;;;;-1.90;61.04;100848.78;5085882;28;20036;-54
2023/02/06 05:59:07;;;;;;;5.57;2.60;;;;;;;-1.88;60.93;100846.25;5080157;28;20153;-54
2023/02/06 06:01:33;;;;;;;5.28;2.53;;;;;;;-2.02;61.01;100825.41;5091191;28;20032;-54
2023/02/06 06:04:00;;;;;;;7.05;2.90;;;;;;;-1.86;61.34;100862.47;5073551;28;20044;-56
2023/02/06 06:06:26;;;;;;;4.55;2.55;;;;;;;-1.84;61.01;100856.63;5072365;28;20036;-54
2023/02/06 06:08:52;;;;;;;5.38;2.80;;;;;;;-1.83;61.20;100862.56;5063960;28;20044;-57
2023/02/06 06:11:19;;;;;;;5.50;2.65;;;;;;;-1.80;61.20;100860.13;5051908;28;20143;-55
2023/02/06 06:13:45;;;;;;;7.47;2.50;;;;;;;-1.77;61.19;100855.13;5068058;28;20132;-51
2023/02/06 06:16:11;;;;;;;4.57;2.60;;;;;;;-1.80;61.17;100861.00;5069780;28;20151;-55
2023/02/06 06:18:37;;;;;;;5.32;2.72;;;;;;;-1.82;61.00;100856.66;5087045;28;20039;-57
2023/02/06 06:21:03;;;;;;;6.80;2.72;;;;;;;-1.79;61.14;100864.44;5099701;28;20388;-53
2023/02/06 06:23:29;;;;;;;5.82;3.00;;;;;;;-1.75;61.02;100867.13;5089166;28;20101;-53
2023/02/06 06:25:55;;;;;;;4.45;2.60;;;;;;;-1.93;60.97;100847.78;5088652;28;20043;-56
2023/02/06 06:28:21;;;;;;;6.10;2.95;;;;;;;-1.83;60.97;100871.09;5088728;28;20044;-58
2023/02/06 06:30:46;;;;;;;6.78;2.92;;;;;;;-2.04;60.95;100841.47;5086186;28;20424;-56
2023/02/06 06:33:15;;;;;;;5.65;3.00;;;;;;;-1.86;60.89;100865.03;5090479;28;20791;-57
2023/02/06 06:35:41;;;;;;;5.43;2.97;;;;;;;-1.82;60.90;100880.47;5099858;28;20444;-55
2023/02/06 06:38:07;;;;;;;5.10;2.63;;;;;;;-1.78;60.76;100877.22;5108691;28;20173;-56
2023/02/06 06:40:33;;;;;;;5.05;2.63;;;;;;;-1.79;60.77;100875.50;5062550;28;20119;-60
2023/02/06 06:42:59;;;;;;;6.93;3.47;;;;;;;-1.74;60.99;100881.63;5068048;28;20059;-53
2023/02/06 06:45:24;;;;;;;5.47;2.88;;;;;;;-1.72;61.05;100887.63;5069264;28;20044;-57
2023/02/06 06:47:50;;;;;;;6.70;2.88;;;;;;;-1.73;61.06;100882.50;5095855;28;20522;-51
2023/02/06 06:50:16;;;;;;;6.28;3.00;;;;;;;-1.76;60.91;100883.22;5076068;28;20205;-55
2023/02/06 06:52:42;;;;;;;6.07;3.20;;;;;;;-1.75;60.56;100886.66;5086017;28;20153;-54
2023/02/06 06:55:08;;;;;;;7.85;3.22;;;;;;;-1.78;60.95;100878.91;5086810;28;20036;-57
2023/02/06 06:57:34;;;;;;;6.53;3.40;;;;;;;-1.72;60.70;100874.88;5080643;28;20059;-54
2023/02/06 07:00:00;;;;;;;8.07;3.85;;;;;;;-1.90;60.87;100835.16;5070196;28;20036;-53
2023/02/06 07:02:27;;;;;;;5.28;2.70;;;;;;;-1.69;60.63;100875.81;5068936;28;20377;-47
2023/02/06 07:04:53;;;;;;;6.22;2.88;;;;;;;-1.68;60.62;100862.25;5087898;28;20096;-60
2023/02/06 07:07:18;;;;;;;6.18;3.50;;;;;;;-1.66;60.47;100866.56;5093464;28;20451;-64
2023/02/06 07:09:44;;;;;;;4.88;3.15;;;;;;;-1.64;60.33;100864.94;5069917;28;20048;-59
2023/02/06 07:12:10;;;;;;;5.22;2.75;;;;;;;-1.62;60.43;100870.94;5088991;28;20048;-65
2023/02/06 07:14:36;;;;;;;7.00;2.90;;;;;;;-1.62;60.57;100868.38;5080805;28;20044;-57
2023/02/06 07:17:02;;;;;;;4.82;3.00;;;;;;;-1.60;60.46;100873.56;5073364;28;20101;-61
2023/02/06 07:19:27;;;;;;;4.72;2.88;;;;;;;-1.57;60.40;100874.50;5087065;28;20032;-50
2023/02/06 07:21:53;;;;;;;4.30;3.00;;;;;;;-1.54;60.16;100874.63;5066271;28;20032;-56
2023/02/06 07:24:19;;;;;;;5.35;2.83;;;;;;;-1.55;60.15;100875.44;5084456;28;20368;-51
2023/02/06 07:26:45;;;;;;;4.90;3.03;;;;;;;-1.53;60.30;100880.59;5081977;28;20046;-51
2023/02/06 07:29:11;;;;;;;6.28;3.22;;;;;;;-1.73;60.30;100847.63;5088047;28;20051;-55
2023/02/06 07:31:40;;;;;;;4.70;3.15;;;;;;;-1.49;60.23;100872.22;5054405;28;20036;-55
2023/02/06 07:34:06;;;;;;;6.78;3.25;;;;;;;-1.46;59.94;100874.88;5088639;28;20043;-51
2023/02/06 07:36:32;;;;;;;4.88;2.90;;;;;;;-1.47;60.00;100878.25;5088561;28;20512;-49
2023/02/06 07:38:58;;;;;;;5.60;3.40;;;;;;;-1.50;60.29;100873.91;5087305;28;20079;-53
2023/02/06 07:41:24;;;;;;;5.05;3.10;;;;;;;-1.67;60.77;100849.53;5068768;28;20064;-52
2023/02/06 07:43:49;;;;;;;6.20;3.60;;;;;;;-1.57;60.67;100876.22;5087178;28;20527;-52
2023/02/06 07:46:15;;;;;;;7.63;3.50;;;;;;;-1.56;60.76;100878.78;5088454;28;20043;-53
2023/02/06 07:48:41;;;;;;;6.05;3.60;;;;;;;-1.57;60.83;100871.97;5088488;28;20036;-50
2023/02/06 07:51:08;;;;;;;6.68;3.90;;;;;;;-1.67;60.83;100875.03;5088487;28;20164;-52
2023/02/06 07:53:34;;;;;;;8.50;3.40;;;;;;;-1.71;60.77;100878.28;5070556;28;20078;-55
2023/02/06 07:56:00;;;;;;;5.97;3.67;;;;;;;-1.89;60.94;100873.44;5078181;28;20040;-53
2023/02/06 07:58:26;;;;;;;6.13;3.53;;;;;;;-1.80;60.95;100883.09;5088560;28;20043;-53
2023/02/06 08:00:53;;;;;;;5.18;3.30;;;;;;;-1.70;60.93;100874.94;5087183;28;20043;-51
2023/02/06 08:03:19;;;;;;;5.53;3.30;;;;;;;-1.98;60.86;100862.91;5066122;28;20537;-54
2023/02/06 08:05:46;;;;;;;4.35;2.70;;;;;;;-2.04;60.77;100849.13;5070496;28;20539;-54
2023/02/06 08:08:12;;;;;;;6.03;3.03;;;;;;;-1.90;61.13;100892.09;5037489;28;20048;-53
2023/02/06 08:10:38;;;;;;;6.28;3.35;;;;;;;-1.95;61.19;100888.53;5075974;28;20056;-54
2023/02/06 08:13:04;;;;;;;5.20;3.20;;;;;;;-1.88;60.95;100880.25;5092477;28;20039;-52
2023/02/06 08:15:31;;;;;;;6.50;3.47;;;;;;;-2.15;60.91;100848.75;5076743;28;20081;-52
2023/02/06 08:17:56;;;;;;;6.00;3.38;;;;;;;-1.80;60.95;100888.19;5070853;28;20178;-54
2023/02/06 08:20:22;;;;;;;6.18;3.50;;;;;;;-1.72;60.95;100885.06;5070545;28;20139;-53
2023/02/06 08:22:48;;;;;;;6.10;3.30;;;;;;;-1.63;60.62;100888.75;5071203;28;20060;-52
2023/02/06 08:25:14;;;;;;;7.43;3.65;;;;;;;-1.61;60.74;100884.56;5072097;28;20162;-51
2023/02/06 08:27:40;;;;;;;6.65;3.17;;;;;;;-1.57;60.68;100889.81;5092122;28;20126;-50
2023/02/06 08:30:06;;;;;;;8.85;4.43;;;;;;;-1.52;60.51;100885.75;5090723;28;20048;-51
2023/02/06 08:32:33;;;;;;;5.53;3.03;;;;;;;-1.50;60.71;100880.69;5075469;28;20043;-54
2023/02/06 08:35:00;;;;;;;6.35;3.70;;;;;;;-1.65;60.78;100853.00;5070240;28;20032;-52
2023/02/06 08:37:26;;;;;;;6.80;3.50;;;;;;;-1.45;60.94;100880.03;5054224;28;20032;-52
2023/02/06 08:39:52;;;;;;;6.72;3.05;;;;;;;-1.53;60.78;100860.19;5072333;28;20052;-56
2023/02/06 08:42:17;;;;;;;6.78;3.85;;;;;;;-1.40;60.77;100878.50;5081994;28;20181;-52
2023/02/06 08:44:43;;;;;;;5.97;3.28;;;;;;;-1.40;60.84;100864.88;5073615;28;20401;-54
2023/02/06 08:47:09;;;;;;;7.93;3.90;;;;;;;-1.34;60.99;100880.38;5092117;28;20066;-51
2023/02/06 08:49:35;;;;;;;6.93;4.05;;;;;;;-1.52;60.92;100872.13;5091868;28;20040;-51
2023/02/06 08:52:01;;;;;;;6.32;3.90;;;;;;;-1.43;60.97;100886.06;5077543;28;20071;-54
2023/02/06 08:54:27;;;;;;;7.55;4.25;;;;;;;-1.61;61.26;100859.06;5071485;28;20087;-55
2023/02/06 08:56:55;;;;;;;6.82;3.83;;;;;;;-1.41;61.14;100891.19;5079985;28;20035;-55
2023/02/06 08:59:21;;;;;;;6.15;3.38;;;;;;;-1.38;60.97;100894.72;5090422;28;20039;-52
2023/02/06 09:01:48;;;;;;;6.47;3.70;;;;;;;-1.40;60.83;100893.78;5071632;28;20040;-51
2023/02/06 09:04:14;;;;;;;6.20;3.00;;;;;;;-1.65;61.16;100888.69;5073549;28;20475;-53
2023/02/06 09:06:42;;;;;;;4.35;2.40;;;;;;;-1.88;61.37;100885.34;5057019;28;20070;-53
2023/02/06 09:09:10;;;;;;;4.40;2.75;;;;;;;-1.91;61.54;100890.34;5089947;28;20047;-53
2023/02/06 09:11:36;;;;;;;6.60;3.58;;;;;;;-1.88;61.63;100889.56;5085072;28;20159;-53
2023/02/06 09:14:03;;;;;;;7.25;3.60;;;;;;;-1.88;61.42;100889.56;5069747;28;20075;-56
2023/02/06 09:16:32;;;;;;;7.30;3.30;;;;;;;-1.94;61.56;100887.72;5070612;28;20500;-51
2023/02/06 09:19:00;;;;;;;5.22;3.22;;;;;;;-2.13;61.84;100883.63;5069779;28;20624;-54
2023/02/06 09:21:28;;;;;;;6.85;2.88;;;;;;;-2.18;61.70;100892.78;5069666;28;20042;-54
2023/02/06 09:23:57;;;;;;;6.85;3.42;;;;;;;-2.16;61.54;100901.38;5069296;28;20036;-55
2023/02/06 09:26:29;;;;;;;8.68;3.80;;;;;;;-1.99;61.53;100888.38;5070322;28;20070;-53
2023/02/06 09:28:57;;;;;;;6.70;3.42;;;;;;;-2.37;61.32;100821.66;5088742;28;20120;-49
2023/02/06 09:31:24;;;;;;;4.93;3.08;;;;;;;-2.15;61.62;100890.34;5086193;28;20079;-56
2023/02/06 09:33:50;;;;;;;6.60;3.92;;;;;;;-2.05;61.66;100889.00;5070049;28;20508;-49
2023/02/06 09:36:19;;;;;;;6.28;3.53;;;;;;;-1.86;61.42;100881.19;5070472;28;20070;-51
2023/02/06 09:38:47;;;;;;;8.35;4.03;;;;;;;-1.77;61.26;100881.50;5069704;28;20044;-54
2023/02/06 09:41:25;;;;;;;6.35;3.60;;;;;;;-1.66;61.30;100889.50;5048925;28;20059;-53
2023/02/06 09:44:04;;;;;;;6.10;3.65;;;;;;;-1.61;61.33;100887.97;5085911;28;20044;-54
2023/02/06 09:46:33;;;;;;;7.20;3.92;;;;;;;-1.51;61.02;100884.91;5079547;28;20089;-54
2023/02/06 09:49:02;;;;;;;8.38;3.95;;;;;;;-1.46;60.85;100887.63;5089132;28;20040;-54
2023/02/06 09:51:34;;;;;;;6.85;3.80;;;;;;;-1.43;60.94;100890.28;5090731;28;20048;-53
2023/02/06 09:54:24;;;;;;;5.60;3.50;;;;;;;-1.38;61.20;100886.19;5069911;28;20043;-53
2023/02/06 09:57:19;;;;;;;;;;;;;;;-1.35;60.90;100888.84;5053931;28;20056;-53
2023/02/06 09:59:58;;;;;;;7.28;3.85;;;;;;;-1.54;60.84;100879.72;5067780;28;20367;-52
2023/02/06 10:02:27;;;;;;;;;;;;;;;-1.65;60.92;100900.56;5066036;28;20555;-52
2023/02/06 10:05:18;;;;;;;5.82;3.65;;;;;;;-1.68;61.19;100895.38;5068916;28;20407;-54
2023/02/06 10:08:05;;;;;;;7.32;3.72;;;;;;;-1.58;60.94;100895.75;5070447;28;20135;-52
2023/02/06 10:10:46;;;;;;;5.38;3.20;;;;;;;-1.51;60.64;100899.34;5085394;28;20457;-55
2023/02/06 10:13:25;;;;;;;6.45;3.28;;;;;;;-1.47;60.89;100904.63;5080271;28;20067;-53
2023/02/06 10:15:57;;;;;;;7.40;2.92;;;;;;;-1.44;60.74;100901.28;5070099;28;20048;-53
2023/02/06 10:18:43;;;;;;;7.15;3.22;;;;;;;-1.40;60.80;100898.03;5068607;28;20044;-52
2023/02/06 10:21:30;;;;;;;6.63;3.15;;;;;;;-1.36;60.75;100900.72;5069755;28;20044;-50
2023/02/06 10:24:07;;;;;;;6.35;3.33;;;;;;;-1.41;60.82;100906.47;5069209;28;20437;-55
2023/02/06 10:26:37;;;;;;;7.75;3.30;;;;;;;-1.37;60.91;100895.59;5068082;28;20044;-54
2023/02/06 10:29:03;;;;;;;4.88;2.80;;;;;;;-1.31;60.80;100904.28;5085376;28;20744;-55
2023/02/06 10:31:29;;;;;;;7.70;3.25;;;;;;;-1.29;60.48;100900.13;5087113;28;20114;-52
2023/02/06 10:34:16;;;;;;;7.30;3.65;;;;;;;-1.39;60.38;100909.97;5067909;28;20052;-55
2023/02/06 10:37:00;;;;;;;5.93;3.33;;;;;;;-1.50;60.70;100901.97;5079712;28;20047;-54
2023/02/06 10:39:53;;;;;;;6.53;3.50;;;;;;;-2.06;60.45;100873.66;5084603;28;20094;-54
2023/02/06 10:42:48;;;;;;;5.53;3.08;;;;;;;-2.11;60.95;100903.19;5075857;28;20067;-54
2023/02/06 10:45:38;;;;;;;6.55;3.75;;;;;;;-2.01;60.71;100898.50;5089540;28;20043;-57
2023/02/06 10:48:31;;;;;;;6.13;3.70;;;;;;;-1.78;60.59;100887.41;5084915;28;20181;-54
2023/02/06 10:51:11;;;;;;;5.88;3.50;;;;;;;-1.64;60.43;100885.34;5068077;28;20090;-50
2023/02/06 10:53:51;;;;;;;7.53;3.45;;;;;;;-1.54;60.09;100891.59;5086764;28;20516;-57
2023/02/06 10:56:25;;;;;;;9.60;3.50;;;;;;;-1.48;59.62;100894.38;5088584;28;20417;-55
2023/02/06 10:58:57;;;;;;;6.85;3.60;;;;;;;-1.69;59.67;100889.41;5052725;28;20117;-52
2023/02/06 11:01:24;;;;;;;9.13;4.28;;;;;;;-1.80;59.61;100847.41;5067894;28;20052;-57
2023/02/06 11:04:16;;;;;;;8.40;3.95;;;;;;;-1.52;59.63;100885.75;5083604;28;20032;-53
2023/02/06 11:06:44;;;;;;;8.88;3.55;;;;;;;-1.47;59.02;100878.25;5081739;28;20046;-55
2023/02/06 11:09:10;;;;;;;6.90;3.78;;;;;;;-1.46;59.23;100877.41;5089118;28;20040;-53
2023/02/06 11:11:40;;;;;;;6.15;3.63;;;;;;;-1.36;58.85;100884.59;5088850;28;20059;-54
2023/02/06 11:14:10;;;;;;;6.75;3.70;;;;;;;-1.31;58.87;100881.34;5067862;28;20091;-49
2023/02/06 11:16:37;;;;;;;5.53;2.92;;;;;;;-1.26;59.00;100885.75;5067586;28;20059;-52
2023/02/06 11:19:30;;;;;;;5.65;3.40;;;;;;;-1.34;58.78;100888.03;5050854;28;20040;-56
2023/02/06 11:22:17;;;;;;;5.80;3.05;;;;;;;-1.59;58.27;100880.38;5069014;28;20111;-54
2023/02/06 11:25:02;;;;;;;6.13;3.25;;;;;;;-1.61;58.42;100882.00;5067360;28;20036;-52
2023/02/06 11:27:30;;;;;;;5.93;3.55;;;;;;;-1.80;58.21;100889.06;5053272;28;20435;-50
2023/02/06 11:30:01;;;;;;;7.38;3.72;;;;;;;-1.65;58.38;100885.28;5066520;28;20111;-53
2023/02/06 11:32:42;;;;;;;6.25;3.45;;;;;;;-1.61;57.78;100887.97;5067270;28;20127;-55
2023/02/06 11:35:25;;;;;;;6.13;3.08;;;;;;;-1.77;58.12;100885.72;5068106;28;20526;-52
2023/02/06 11:37:53;;;;;;;5.85;3.33;;;;;;;-1.90;58.06;100888.69;5050574;28;20036;-50